Latest Weather Observations for Warburton

IDD60801

Issued at 3:35 pm CST Saturday 30 August 2014 (issued every 30 minutes, with the page automatically refreshed every 10 minutes)

About weather observations | Map of weather stations | Latest weather observations for NT | Other Formats
Station Details ID: 013011 Name: WARBURTON AIRFIELD Lat: -26.13 Lon: 126.58 Height: 459.0 m
Data from the previous 72 hours. | See also: Recent months at Warburton
Date/Time
CST
Temp
°C
App
Temp
°C
Dew
Point
Rel
Hum
%
Delta-T
°C
Wind Press
QNH
hPa
Press
MSL
hPa
Rain
since 9 am
mm
Dir
 
Spd
km/h
Gust
km/h
Spd
kts
Gust
kts
30/03:30pm 29.5 24.5 -8.2 8 15.9 NNW 11 20 6 11 1017.2 - 0.0
30/03:00pm 29.9 24.9 -7.9 8 16.1 N 11 20 6 11 1017.5 - 0.0
30/02:30pm 29.1 24.5 -8.5 8 15.7 W 9 20 5 11 1017.8 - 0.0
30/02:00pm 29.4 24.8 -8.2 8 15.8 NW 9 24 5 13 1018.4 - 0.0
30/01:30pm 29.6 24.2 -8.1 8 15.9 NNW 13 24 7 13 1018.9 1018.1 0.0
30/01:00pm 28.4 21.8 -9.0 8 15.4 WNW 19 26 10 14 1019.4 - 0.0
30/12:30pm 28.2 21.2 -7.6 9 15.1 N 22 32 12 17 1019.9 - 0.0
30/12:00pm 27.8 20.7 -7.9 9 14.9 N 22 30 12 16 1020.3 - 0.0
30/11:30am 26.7 19.3 -7.4 10 14.2 N 24 33 13 18 1020.8 - 0.0
30/11:00am 26.3 19.0 -6.5 11 13.9 NNW 24 32 13 17 1021.0 - 0.0
30/10:30am 25.3 18.0 -6.1 12 13.2 N 24 32 13 17 1021.2 1020.5 0.0
30/10:00am 24.1 17.2 -6.0 13 12.6 N 22 28 12 15 1021.3 - 0.0
30/09:30am 22.7 16.8 -6.1 14 11.9 N 17 20 9 11 1021.2 - 0.0
30/09:00am 19.7 14.9 -6.0 17 10.3 N 11 17 6 9 1021.0 - 0.0
30/08:30am 16.5 12.2 -5.3 22 8.6 N 9 13 5 7 1020.6 - 0.0
30/08:00am 14.5 9.7 -5.8 24 7.7 N 11 13 6 7 1020.4 - 0.0
30/07:30am 10.3 6.3 -6.1 31 5.9 N 7 9 4 5 1020.2 1019.4 0.0
30/07:00am 11.0 6.3 -5.5 31 6.1 NNE 11 13 6 7 1019.8 - 0.0
30/06:30am 9.9 5.1 -5.6 33 5.6 N 11 13 6 7 1019.6 - 0.0
30/06:00am 7.8 3.9 -6.7 35 5.0 N 6 7 3 4 1019.6 - 0.0
30/05:30am 7.7 3.6 -6.8 35 5.0 NNE 7 9 4 5 1019.6 - 0.0
30/05:00am 8.5 4.0 -6.4 34 5.2 N 9 11 5 6 1020.0 - 0.0
30/04:30am 8.4 4.3 -6.9 33 5.3 N 7 9 4 5 1019.9 1019.1 0.0
30/04:00am 9.3 5.2 -6.9 31 5.6 N 7 7 4 4 1019.8 - 0.0
30/03:30am 9.6 5.5 -6.3 32 5.6 N 7 9 4 5 1020.0 - 0.0
30/03:00am 10.0 5.6 -6.3 31 5.8 N 9 11 5 6 1020.1 - 0.0
30/02:30am 10.0 6.1 -6.8 30 5.9 NNE 6 9 3 5 1020.2 - 0.0
30/02:00am 10.6 6.5 -6.7 29 6.2 N 7 7 4 4 1020.3 - 0.0
30/01:30am 11.7 7.6 -6.6 27 6.6 N 7 9 4 5 1020.4 1019.6 0.0
30/01:00am 12.8 8.3 -6.7 25 7.1 NNE 9 11 5 6 1020.4 - 0.0
30/12:30am 12.9 8.1 -6.1 26 7.0 N 11 11 6 6 1020.4 - 0.0
30/12:00am 12.7 8.6 -6.3 26 7.0 N 7 9 4 5 1020.4 - 0.0
 
Date/Time
CST
Temp
°C
App
Temp
°C
Dew
Point
Rel
Hum
%
Delta-T
°C
Wind Press
QNH
hPa
Press
MSL
hPa
Rain
since 9 am
mm
Dir
 
Spd
km/h
Gust
km/h
Spd
kts
Gust
kts
29/11:30pm 13.7 9.6 -6.5 24 7.5 NNE 7 9 4 5 1020.4 - 0.0
29/11:00pm 14.3 9.8 -6.5 23 7.8 NNE 9 9 5 5 1020.7 - 0.0
29/10:30pm 16.0 11.2 -6.3 21 8.5 NNE 11 13 6 7 1020.8 1020.0 0.0
29/10:00pm 14.2 9.4 -6.1 24 7.6 NE 11 11 6 6 1020.8 - 0.0
29/09:30pm 16.3 11.8 -6.7 20 8.8 NNE 9 9 5 5 1020.8 - 0.0
29/09:00pm 17.7 13.8 -6.9 18 9.5 N 6 7 3 4 1020.6 - 0.0
29/08:30pm 19.2 14.7 -7.2 16 10.3 NNE 9 11 5 6 1020.2 - 0.0
29/08:00pm 21.0 16.4 -7.5 14 11.2 NNE 9 11 5 6 1019.8 - 0.0
29/07:30pm 22.6 17.7 -7.2 13 12.0 NNE 11 13 6 7 1019.3 1018.5 0.0
29/07:00pm 24.3 19.7 -8.0 11 13.0 NNE 9 15 5 8 1018.9 - 0.0
29/06:30pm 26.3 21.7 -7.7 10 14.0 N 9 13 5 7 1018.8 - 0.0
29/06:00pm 27.1 22.5 -8.5 9 14.6 N 9 17 5 9 1018.7 - 0.0
29/05:30pm 27.8 22.8 -7.9 9 14.9 N 11 19 6 10 1018.6 - 0.0
29/05:00pm 27.8 22.4 -7.9 9 14.9 N 13 20 7 11 1018.7 - 0.0
29/04:30pm 28.6 23.7 -7.3 9 15.2 NNE 11 19 6 10 1018.8 1018.0 0.0
29/04:00pm 28.6 22.9 -7.3 9 15.3 NE 15 22 8 12 1019.0 - 0.0
29/03:30pm 28.5 23.6 -7.4 9 15.2 NNE 11 20 6 11 1019.4 - 0.0
29/03:00pm 28.0 22.3 -7.8 9 15.0 NNE 15 22 8 12 1019.6 - 0.0
29/02:30pm 28.2 22.5 -7.6 9 15.1 NNE 15 26 8 14 1020.1 - 0.0
29/02:00pm 28.2 21.7 -7.6 9 15.1 ENE 19 32 10 17 1020.5 - 0.0
29/01:30pm 28.2 21.9 -6.3 10 14.8 NNE 19 33 10 18 1021.1 1020.4 0.0
29/01:00pm 27.7 22.8 -6.6 10 14.6 NE 11 24 6 13 1021.6 - 0.0
29/12:30pm 27.1 20.7 -7.1 10 14.4 NNE 19 30 10 16 1022.2 - 0.0
29/12:00pm 26.7 20.2 -6.2 11 14.0 NNE 20 30 11 16 1022.5 - 0.0
29/11:30am 26.1 18.8 -6.6 11 13.8 NNE 24 35 13 19 1022.6 - 0.0
29/11:00am 25.0 18.1 -6.3 12 13.1 NNE 22 33 12 18 1023.2 - 0.0
29/10:30am 23.7 16.8 -6.3 13 12.4 N 22 30 12 16 1023.4 1022.7 0.0
29/10:00am 22.5 15.2 -6.3 14 11.8 NNE 24 33 13 18 1023.8 - 0.0
29/09:30am 21.5 14.2 -6.2 15 11.2 NNE 24 33 13 18 1023.5 - 0.0
29/09:00am 19.4 13.9 -5.5 18 10.0 NNE 15 20 8 11 1023.1 - 0.0
29/08:30am 17.1 12.0 -5.4 21 8.9 NNE 13 17 7 9 1022.8 - 0.0
29/08:00am 15.0 9.6 -4.8 25 7.7 NNE 15 17 8 9 1022.5 - 0.0
29/07:30am 13.8 8.3 -5.3 26 7.3 NNE 15 17 8 9 1022.2 1021.4 0.0
29/07:00am 12.8 7.3 -5.2 28 6.8 NNE 15 17 8 9 1022.2 - 0.0
29/06:30am 12.7 8.0 -5.3 28 6.8 NNE 11 13 6 7 1022.2 - 0.0
29/06:00am 13.2 8.5 -5.4 27 7.0 NNE 11 13 6 7 1021.9 - 0.0
29/05:30am 13.5 8.8 -5.1 27 7.1 NNE 11 13 6 7 1021.6 - 0.0
29/05:00am 14.5 9.4 -5.3 25 7.6 NNE 13 15 7 8 1021.2 - 0.0
29/04:30am 15.6 10.1 -5.4 23 8.1 NE 15 17 8 9 1021.0 1020.3 0.0
29/04:00am 14.6 9.1 -5.7 24 7.7 NNE 15 17 8 9 1020.9 - 0.0
29/03:30am 14.2 9.0 -6.1 24 7.6 NNE 13 17 7 9 1021.2 - 0.0
29/03:00am 14.5 9.7 -6.4 23 7.8 NE 11 13 6 7 1021.1 - 0.0
29/02:30am 15.1 10.3 -6.4 22 8.1 NE 11 13 6 7 1021.3 - 0.0
29/02:00am 13.6 8.9 -5.5 26 7.2 NE 11 15 6 8 1021.6 - 0.0
29/01:30am 11.3 6.8 -6.5 28 6.4 NNE 9 13 5 7 1021.6 1020.8 0.0
29/01:00am 11.6 7.5 -6.3 28 6.5 NNE 7 11 4 6 1021.7 - 0.0
29/12:30am 11.3 7.4 -6.1 29 6.3 NE 6 11 3 6 1021.9 - 0.0
29/12:00am 11.4 7.0 -6.0 29 6.4 NE 9 9 5 5 1021.9 - 0.0
 
Date/Time
CST
Temp
°C
App
Temp
°C
Dew
Point
Rel
Hum
%
Delta-T
°C
Wind Press
QNH
hPa
Press
MSL
hPa
Rain
since 9 am
mm
Dir
 
Spd
km/h
Gust
km/h
Spd
kts
Gust
kts
28/11:30pm 12.1 9.0 -5.8 28 6.6 NE 2 6 1 3 1021.9 - 0.0
28/11:00pm 13.3 9.4 -6.3 25 7.3 NNE 6 7 3 4 1022.0 - 0.0
28/10:30pm 13.2 9.2 -5.9 26 7.1 ENE 7 9 4 5 1022.0 1021.2 0.0
28/10:00pm 14.6 11.5 -6.3 23 7.9 NE 2 6 1 3 1022.1 - 0.0
28/09:30pm 15.6 11.7 -6.6 21 8.4 E 6 7 3 4 1021.9 - 0.0
28/09:00pm 17.0 12.5 -6.8 19 9.1 NNE 9 11 5 6 1021.6 - 0.0
28/08:30pm 18.0 13.8 -7.4 17 9.7 NE 7 9 4 5 1021.2 - 0.0
28/08:00pm 20.3 16.2 -7.1 15 10.8 NNE 7 9 4 5 1020.8 - 0.0
28/07:30pm 22.9 18.3 -8.0 12 12.2 N 9 11 5 6 1020.5 1019.7 0.0
28/07:00pm 24.7 19.6 -8.9 10 13.4 N 11 13 6 7 1020.1 - 0.0
28/06:30pm 26.5 21.1 -8.9 9 14.3 N 13 19 7 10 1019.8 - 0.0
28/06:00pm 27.3 21.2 -8.3 9 14.7 NE 17 24 9 13 1019.6 - 0.0
28/05:30pm 27.7 22.7 -8.0 9 14.9 NNE 11 20 6 11 1019.5 - 0.0
28/05:00pm 27.8 21.7 -7.9 9 14.9 NNW 17 24 9 13 1019.6 - 0.0
28/04:30pm 28.2 23.3 -7.6 9 15.0 E 11 22 6 12 1019.8 1019.0 0.0
28/04:00pm 28.5 23.2 -7.4 9 15.2 N 13 20 7 11 1019.9 - 0.0
28/03:30pm 28.0 23.4 -7.8 9 15.0 N 9 17 5 9 1020.0 - 0.0
28/03:00pm 28.2 22.9 -7.6 9 15.1 NNW 13 20 7 11 1020.3 - 0.0
28/02:30pm 27.4 21.6 -8.2 9 14.7 NNE 15 28 8 15 1020.9 - 0.0
28/02:00pm 27.8 21.1 -7.9 9 14.9 N 20 30 11 16 1021.5 - 0.0
28/01:30pm 28.1 21.6 -7.7 9 15.0 N 19 30 10 16 1022.0 1021.2 0.0
28/01:00pm 27.3 19.8 -8.3 9 14.7 N 24 33 13 18 1022.4 - 0.0
28/12:30pm 26.3 18.1 -7.7 10 14.0 N 28 37 15 20 1022.9 - 0.0
28/12:00pm 25.8 17.2 -8.1 10 13.8 N 30 39 16 21 1023.3 - 0.0
28/11:30am 25.1 16.8 -8.6 10 13.5 NNE 28 41 15 22 1023.4 - 0.0
28/11:00am 24.0 15.0 -8.2 11 12.9 NNE 32 44 17 24 1023.8 - 0.0
28/10:30am 22.9 13.9 -8.0 12 12.2 NNE 32 44 17 24 1024.0 1023.2 0.0
28/10:00am 22.0 13.8 -7.6 13 11.8 NNE 28 41 15 22 1024.1 - 0.0
28/09:30am 20.9 13.9 -6.7 15 11.0 NNE 22 32 12 17 1023.9 - 0.0
28/09:00am 18.2 11.7 -5.8 19 9.5 NE 20 30 11 16 1023.5 - 0.0
28/08:30am 16.9 10.6 -5.5 21 8.8 NE 19 24 10 13 1023.0 - 0.0
28/08:00am 16.1 10.5 -6.2 21 8.6 NNE 15 20 8 11 1022.5 - 0.0
28/07:30am 12.4 7.7 -5.1 29 6.6 NNE 11 13 6 7 1022.0 1021.2 0.0
28/07:00am 7.9 3.2 -4.8 40 4.6 NNE 11 11 6 6 1021.6 - 0.0
28/06:30am 7.7 3.3 -5.7 38 4.7 NNE 9 9 5 5 1021.3 - 0.0
28/06:00am 7.7 3.9 -5.7 38 4.7 NE 6 7 3 4 1021.1 - 0.0
28/05:30am 8.8 4.1 -5.4 36 5.1 NNE 11 13 6 7 1020.8 - 0.0
28/05:00am 8.2 4.4 -5.6 37 4.9 N 6 9 3 5 1020.6 - 0.0
28/04:30am 8.5 4.5 -6.1 35 5.1 NNE 7 9 4 5 1020.5 1019.7 0.0
28/04:00am 9.0 6.3 -5.6 35 5.2 CALM 0 0 0 0 1020.5 - 0.0
28/03:30am 9.7 7.0 -5.8 33 5.6 CALM 0 0 0 0 1020.6 - 0.0
28/03:00am 9.6 5.8 -5.9 33 5.6 NE 6 9 3 5 1020.8 - 0.0
28/02:30am 10.6 7.9 -5.8 31 6.0 CALM 0 0 0 0 1020.9 - 0.0
28/02:00am 11.1 8.5 -5.4 31 6.1 CALM 0 0 0 0 1021.2 - 0.0
28/01:30am 11.4 8.7 -5.5 30 6.2 CALM 0 0 0 0 1021.5 1020.7 0.0
28/01:00am 12.3 9.6 -5.7 28 6.7 CALM 0 2 0 1 1021.7 - 0.0
28/12:30am 13.3 9.3 -5.3 27 7.1 NNE 7 9 4 5 1022.0 - 0.0
28/12:00am 15.6 11.6 -5.4 23 8.2 N 7 9 4 5 1022.1 - 0.0
 
Date/Time
CST
Temp
°C
App
Temp
°C
Dew
Point
Rel
Hum
%
Delta-T
°C
Wind Press
QNH
hPa
Press
MSL
hPa
Rain
since 9 am
mm
Dir
 
Spd
km/h
Gust
km/h
Spd
kts
Gust
kts
27/11:30pm 17.6 12.8 -5.6 20 9.2 ESE 11 11 6 6 1022.1 - 0.0
27/11:00pm 18.1 13.3 -5.9 19 9.5 E 11 13 6 7 1022.1 - 0.0
27/10:30pm 17.6 12.5 -5.6 20 9.1 NNE 13 19 7 10 1022.2 1021.4 0.0
27/10:00pm 17.3 13.3 -5.2 21 8.9 N 7 11 4 6 1022.1 - 0.0
27/09:30pm 18.2 14.7 -5.8 19 9.5 NW 4 7 2 4 1022.0 - 0.0
27/09:00pm 18.2 14.3 -5.1 20 9.4 SSE 7 9 4 5 1021.7 - 0.0
27/08:30pm 20.3 16.3 -5.5 17 10.5 SSE 7 9 4 5 1021.2 - 0.0
27/08:00pm 21.1 17.1 -5.7 16 10.9 SSE 7 9 4 5 1020.7 - 0.0
27/07:30pm 23.8 19.7 -6.2 13 12.4 S 7 9 4 5 1020.4 1019.6 0.0
27/07:00pm 25.6 22.4 -7.0 11 13.6 SSE 2 7 1 4 1020.0 - 0.0
27/06:30pm 27.3 23.7 -6.9 10 14.5 NE 4 9 2 5 1019.7 - 0.0
27/06:00pm 28.1 23.9 -7.7 9 15.0 WSW 7 11 4 6 1019.7 - 0.0
27/05:30pm 28.5 23.2 -7.4 9 15.2 NW 13 20 7 11 1019.8 - 0.0

Other Formats:

Comma delimited format used in spreadsheet applications
http://www.bom.gov.au/fwo/IDD60801/IDD60801.94457.axf

JavaScript Object Notation format (JSON) in row-major order
http://www.bom.gov.au/fwo/IDD60801/IDD60801.94457.json